createdAt,value
2018-05-23T00:00:10.807Z,0
2018-05-23T00:01:12.429Z,0
2018-05-23T00:02:14.044Z,0
2018-05-23T00:03:15.659Z,0
2018-05-23T00:04:17.277Z,0
2018-05-23T00:05:18.889Z,0
2018-05-23T00:06:20.509Z,0
2018-05-23T00:07:22.121Z,0
2018-05-23T00:08:23.744Z,0
2018-05-23T00:09:25.360Z,0
2018-05-23T00:10:26.981Z,0
2018-05-23T00:11:28.593Z,0
2018-05-23T00:12:30.203Z,0
2018-05-23T00:13:31.824Z,0
2018-05-23T00:14:33.442Z,0
2018-05-23T00:15:35.055Z,0
2018-05-23T00:16:36.677Z,0
2018-05-23T00:17:38.289Z,0
2018-05-23T00:18:39.903Z,0
2018-05-23T00:19:41.521Z,0
2018-05-23T00:20:43.138Z,0
2018-05-23T00:21:44.759Z,0
2018-05-23T00:22:46.374Z,0
2018-05-23T00:23:47.996Z,0
2018-05-23T00:24:49.608Z,0
2018-05-23T00:25:51.229Z,0
2018-05-23T00:26:52.839Z,0
2018-05-23T00:27:54.455Z,0
2018-05-23T00:28:56.081Z,0
2018-05-23T00:29:57.694Z,0
2018-05-23T00:30:59.314Z,0
2018-05-23T00:32:00.925Z,0
2018-05-23T00:33:02.541Z,0
2018-05-23T00:34:04.162Z,0
2018-05-23T00:35:05.775Z,0
2018-05-23T00:36:07.391Z,0
2018-05-23T00:37:09.014Z,0
2018-05-23T00:38:10.636Z,0
2018-05-23T00:39:12.245Z,0
2018-05-23T00:40:13.863Z,0
2018-05-23T00:41:15.475Z,0
2018-05-23T00:42:17.096Z,0
2018-05-23T00:43:18.711Z,0
2018-05-23T00:44:20.332Z,0
2018-05-23T00:45:21.952Z,0
2018-05-23T00:46:23.565Z,0
2018-05-23T00:47:25.183Z,0
2018-05-23T00:48:26.801Z,0
2018-05-23T00:49:28.421Z,0
2018-05-23T00:50:30.042Z,0
2018-05-23T00:51:31.658Z,0
2018-05-23T00:52:33.278Z,0
2018-05-23T00:53:34.896Z,0
2018-05-23T00:54:36.510Z,0
2018-05-23T00:55:38.124Z,0
2018-05-23T00:56:39.739Z,0
2018-05-23T00:57:41.359Z,0
2018-05-23T00:58:42.979Z,0
2018-05-23T00:59:44.593Z,0
2018-05-23T01:00:46.208Z,0
2018-05-23T01:01:47.820Z,0
2018-05-23T01:02:49.434Z,0
2018-05-23T01:03:51.051Z,0
2018-05-23T01:04:52.667Z,0
2018-05-23T01:05:54.285Z,0
2018-05-23T01:06:55.905Z,0
2018-05-23T01:07:57.518Z,0
2018-05-23T01:08:59.135Z,0
2018-05-23T01:10:00.750Z,0
2018-05-23T01:11:02.362Z,0
2018-05-23T01:12:03.989Z,0
2018-05-23T01:13:05.602Z,0
2018-05-23T01:14:07.219Z,0
2018-05-23T01:15:08.835Z,0
2018-05-23T01:16:10.450Z,0
2018-05-23T01:17:12.066Z,0
2018-05-23T01:18:13.689Z,0
2018-05-23T01:19:15.303Z,0
2018-05-23T01:20:16.920Z,0
2018-05-23T01:21:18.535Z,0
2018-05-23T01:22:20.150Z,0
2018-05-23T01:23:21.764Z,0
2018-05-23T01:24:23.381Z,0
2018-05-23T01:25:25.001Z,0
2018-05-23T01:26:26.613Z,0
2018-05-23T01:27:28.233Z,0
2018-05-23T01:28:29.849Z,0
2018-05-23T01:29:31.461Z,0
2018-05-23T01:30:33.082Z,0
2018-05-23T01:31:35.526Z,0
2018-05-23T01:32:37.140Z,0
2018-05-23T01:33:38.764Z,0
2018-05-23T01:34:40.377Z,0
2018-05-23T01:35:41.995Z,0
2018-05-23T01:36:43.614Z,0
2018-05-23T01:37:45.236Z,0
2018-05-23T01:38:46.846Z,0
2018-05-23T01:39:48.470Z,0
2018-05-23T01:40:50.081Z,0
2018-05-23T01:41:51.698Z,0
2018-05-23T01:42:53.314Z,0
2018-05-23T01:43:54.934Z,0
2018-05-23T01:44:56.545Z,0
2018-05-23T01:45:58.164Z,0
2018-05-23T01:46:59.775Z,0
2018-05-23T01:48:01.391Z,0
2018-05-23T01:49:03.012Z,0
2018-05-23T01:50:04.628Z,0
2018-05-23T01:51:06.245Z,0
2018-05-23T01:52:07.864Z,0
2018-05-23T01:53:09.483Z,0
2018-05-23T01:54:11.094Z,0
2018-05-23T01:55:12.711Z,0
2018-05-23T01:56:14.331Z,0
2018-05-23T01:57:15.960Z,0
2018-05-23T01:58:17.568Z,0
2018-05-23T01:59:19.184Z,0
2018-05-23T02:00:20.796Z,0
2018-05-23T02:01:22.426Z,0
2018-05-23T02:02:24.037Z,0
2018-05-23T02:03:25.652Z,0
2018-05-23T02:04:27.269Z,0
2018-05-23T02:05:28.886Z,0
2018-05-23T02:06:30.498Z,0
2018-05-23T02:07:32.116Z,0
2018-05-23T02:08:33.735Z,0
2018-05-23T02:09:35.351Z,0
2018-05-23T02:10:36.964Z,0
2018-05-23T02:11:38.587Z,0
2018-05-23T02:12:40.203Z,0
2018-05-23T02:13:41.821Z,0
2018-05-23T02:14:43.442Z,0
2018-05-23T02:15:45.058Z,0
2018-05-23T02:16:46.673Z,0
2018-05-23T02:17:48.294Z,0
2018-05-23T02:18:49.906Z,0
2018-05-23T02:19:51.525Z,0
2018-05-23T02:20:53.139Z,0
2018-05-23T02:21:54.762Z,0
2018-05-23T02:22:56.379Z,0
2018-05-23T02:23:57.993Z,0
2018-05-23T02:24:59.617Z,0
2018-05-23T02:26:01.228Z,0
2018-05-23T02:27:02.849Z,0
2018-05-23T02:28:04.462Z,0
2018-05-23T02:29:06.082Z,0
2018-05-23T02:30:07.701Z,0
2018-05-23T02:31:09.313Z,0
2018-05-23T02:32:10.930Z,0
2018-05-23T02:33:12.547Z,0
2018-05-23T02:34:14.165Z,0
2018-05-23T02:35:15.779Z,0
2018-05-23T02:36:17.400Z,0
2018-05-23T02:37:19.019Z,0
2018-05-23T02:38:20.630Z,0
2018-05-23T02:39:22.251Z,0
2018-05-23T02:40:23.866Z,0
2018-05-23T02:41:25.480Z,0
2018-05-23T02:42:27.098Z,0
2018-05-23T02:43:28.717Z,0
2018-05-23T02:44:30.331Z,0
2018-05-23T02:45:31.952Z,0
2018-05-23T02:46:33.568Z,0
2018-05-23T02:47:35.188Z,0
2018-05-23T02:48:36.807Z,0
2018-05-23T02:49:38.427Z,0
2018-05-23T02:50:40.039Z,0
2018-05-23T02:51:41.650Z,0
2018-05-23T02:52:43.273Z,0
2018-05-23T02:53:44.891Z,0
2018-05-23T02:54:46.508Z,0
2018-05-23T02:55:48.128Z,0
2018-05-23T02:56:49.740Z,0
2018-05-23T02:57:51.354Z,0
2018-05-23T02:58:52.973Z,0
2018-05-23T02:59:54.596Z,0
2018-05-23T03:00:56.205Z,0
2018-05-23T03:01:57.827Z,0
2018-05-23T03:02:59.476Z,0
2018-05-23T03:04:01.651Z,4
2018-05-23T03:05:03.281Z,4
2018-05-23T03:06:05.439Z,4
2018-05-23T03:07:07.061Z,0
2018-05-23T03:08:08.683Z,4
2018-05-23T03:09:10.297Z,4
2018-05-23T03:10:11.917Z,8
2018-05-23T03:11:13.531Z,4
2018-05-23T03:12:15.143Z,8
2018-05-23T03:13:16.765Z,8
2018-05-23T03:14:18.376Z,8
2018-05-23T03:15:19.999Z,8
2018-05-23T03:16:21.617Z,12
2018-05-23T03:17:23.234Z,12
2018-05-23T03:18:24.851Z,12
2018-05-23T03:19:26.470Z,20
2018-05-23T03:20:28.091Z,20
2018-05-23T03:21:29.711Z,20
2018-05-23T03:22:31.331Z,24
2018-05-23T03:23:32.947Z,28
2018-05-23T03:24:34.567Z,32
2018-05-23T03:25:36.180Z,36
2018-05-23T03:26:37.801Z,40
2018-05-23T03:27:39.415Z,44
2018-05-23T03:28:41.034Z,48
2018-05-23T03:29:42.655Z,56
2018-05-23T03:30:44.269Z,64
2018-05-23T03:31:45.891Z,68
2018-05-23T03:32:47.502Z,76
2018-05-23T03:33:49.122Z,80
2018-05-23T03:34:50.743Z,88
2018-05-23T03:35:52.361Z,96
2018-05-23T03:36:53.978Z,104
2018-05-23T03:37:55.599Z,112
2018-05-23T03:38:57.220Z,120
2018-05-23T03:39:58.836Z,132
2018-05-23T03:41:00.463Z,136
2018-05-23T03:42:02.080Z,152
2018-05-23T03:43:03.700Z,160
2018-05-23T03:44:05.322Z,168
2018-05-23T03:45:06.937Z,176
2018-05-23T03:46:08.557Z,184
2018-05-23T03:47:10.180Z,192
2018-05-23T03:48:11.796Z,196
2018-05-23T03:49:13.415Z,200
2018-05-23T03:50:15.036Z,204
2018-05-23T03:51:16.657Z,212
2018-05-23T03:52:18.277Z,216
2018-05-23T03:53:19.898Z,224
2018-05-23T03:54:21.517Z,224
2018-05-23T03:55:23.204Z,232
2018-05-23T03:56:24.755Z,240
2018-05-23T03:57:26.371Z,248
2018-05-23T03:58:27.996Z,256
2018-05-23T03:59:29.620Z,268
2018-05-23T04:00:31.236Z,268
2018-05-23T04:01:32.860Z,272
2018-05-23T04:02:34.477Z,276
2018-05-23T04:03:36.099Z,280
2018-05-23T04:04:37.722Z,284
2018-05-23T04:05:39.343Z,292
2018-05-23T04:06:40.965Z,308
2018-05-23T04:07:42.586Z,324
2018-05-23T04:08:44.200Z,344
2018-05-23T04:09:45.906Z,368
2018-05-23T04:10:47.445Z,392
2018-05-23T04:11:49.061Z,412
2018-05-23T04:12:50.684Z,432
2018-05-23T04:13:52.303Z,444
2018-05-23T04:14:53.924Z,452
2018-05-23T04:15:55.546Z,456
2018-05-23T04:16:57.160Z,456
2018-05-23T04:17:58.784Z,452
2018-05-23T04:19:00.399Z,456
2018-05-23T04:20:02.020Z,464
2018-05-23T04:21:03.645Z,468
2018-05-23T04:22:05.259Z,480
2018-05-23T04:23:06.883Z,496
2018-05-23T04:24:08.504Z,508
2018-05-23T04:25:10.125Z,528
2018-05-23T04:26:11.743Z,552
2018-05-23T04:27:13.362Z,572
2018-05-23T04:28:14.981Z,600
2018-05-23T04:29:16.601Z,624
2018-05-23T04:30:18.217Z,660
2018-05-23T04:31:19.845Z,692
2018-05-23T04:32:21.460Z,740
2018-05-23T04:33:23.080Z,792
2018-05-23T04:34:24.706Z,852
2018-05-23T04:35:26.323Z,912
2018-05-23T04:36:27.942Z,964
2018-05-23T04:37:29.564Z,1000
2018-05-23T04:38:31.182Z,1032
2018-05-23T04:39:32.808Z,1056
2018-05-23T04:40:34.427Z,1064
2018-05-23T04:41:36.059Z,1068
2018-05-23T04:42:37.667Z,1076
2018-05-23T04:43:39.290Z,1092
2018-05-23T04:44:40.911Z,1100
2018-05-23T04:45:42.535Z,1108
2018-05-23T04:46:44.163Z,1112
2018-05-23T04:47:45.782Z,1112
2018-05-23T04:48:47.411Z,1108
2018-05-23T04:49:49.029Z,1108
2018-05-23T04:50:50.646Z,1120
2018-05-23T04:51:52.270Z,1128
2018-05-23T04:52:53.890Z,1136
2018-05-23T04:53:55.516Z,1144
2018-05-23T04:54:57.141Z,1144
2018-05-23T04:55:58.764Z,1136
2018-05-23T04:57:00.390Z,1128
2018-05-23T04:58:02.009Z,1136
2018-05-23T04:59:03.631Z,1156
2018-05-23T05:00:05.256Z,1200
2018-05-23T05:01:06.876Z,1244
2018-05-23T05:02:08.504Z,1312
2018-05-23T05:03:10.129Z,1376
2018-05-23T05:04:11.746Z,1436
2018-05-23T05:05:13.366Z,1476
2018-05-23T05:06:14.990Z,1492
2018-05-23T05:07:16.610Z,1488
2018-05-23T05:08:18.235Z,1492
2018-05-23T05:09:19.860Z,1496
2018-05-23T05:10:21.477Z,1508
2018-05-23T05:11:23.099Z,1524
2018-05-23T05:12:24.723Z,1532
2018-05-23T05:13:26.347Z,1516
2018-05-23T05:14:27.965Z,1484
2018-05-23T05:15:29.592Z,1448
2018-05-23T05:16:31.210Z,1408
2018-05-23T05:17:32.828Z,1380
2018-05-23T05:18:34.458Z,1368
2018-05-23T05:19:36.088Z,1360
2018-05-23T05:20:37.698Z,1352
2018-05-23T05:21:39.321Z,1340
2018-05-23T05:22:40.942Z,1324
2018-05-23T05:23:42.558Z,1296
2018-05-23T05:24:44.186Z,1268
2018-05-23T05:25:45.804Z,1240
2018-05-23T05:26:47.428Z,1212
2018-05-23T05:27:49.046Z,1204
2018-05-23T05:28:50.671Z,1200
2018-05-23T05:29:52.289Z,1196
2018-05-23T05:30:53.915Z,1212
2018-05-23T05:31:55.585Z,1240
2018-05-23T05:32:57.160Z,1284
2018-05-23T05:33:58.777Z,1344
2018-05-23T05:35:00.400Z,1412
2018-05-23T05:36:02.024Z,1484
2018-05-23T05:37:03.641Z,1540
2018-05-23T05:38:05.270Z,1596
2018-05-23T05:39:06.889Z,1652
2018-05-23T05:40:08.510Z,1712
2018-05-23T05:41:10.132Z,1784
2018-05-23T05:42:11.755Z,1856
2018-05-23T05:43:13.376Z,1940
2018-05-23T05:44:14.996Z,2056
2018-05-23T05:45:16.621Z,2172
2018-05-23T05:46:18.239Z,2292
2018-05-23T05:47:19.861Z,2444
2018-05-23T05:48:21.477Z,2632
2018-05-23T05:49:23.098Z,2828
2018-05-23T05:50:24.717Z,3000
2018-05-23T05:51:26.343Z,3144
2018-05-23T05:52:27.970Z,3260
2018-05-23T05:53:29.591Z,3376
2018-05-23T05:54:31.213Z,3512
2018-05-23T05:55:32.827Z,3640
2018-05-23T05:56:34.449Z,3784
2018-05-23T05:57:36.070Z,3976
2018-05-23T05:58:37.688Z,4188
2018-05-23T05:59:39.321Z,4376
2018-05-23T06:00:40.943Z,4504
2018-05-23T06:01:42.558Z,4560
2018-05-23T06:02:44.179Z,4548
2018-05-23T06:03:45.804Z,4500
2018-05-23T06:04:47.428Z,4460
2018-05-23T06:05:49.053Z,4452
2018-05-23T06:06:50.679Z,4460
2018-05-23T06:07:52.304Z,4464
2018-05-23T06:08:53.932Z,4428
2018-05-23T06:09:55.576Z,4316
2018-05-23T06:10:57.174Z,4144
2018-05-23T06:11:58.791Z,3928
2018-05-23T06:13:00.409Z,3744
2018-05-23T06:14:02.036Z,3624
2018-05-23T06:15:03.653Z,3588
2018-05-23T06:16:05.279Z,3620
2018-05-23T06:17:06.903Z,3692
2018-05-23T06:18:08.527Z,3780
2018-05-23T06:19:10.144Z,3904
2018-05-23T06:20:11.773Z,4052
2018-05-23T06:21:14.196Z,4232
2018-05-23T06:22:15.872Z,4432
2018-05-23T06:23:17.452Z,4640
2018-05-23T06:24:19.069Z,4808
2018-05-23T06:25:20.707Z,4960
2018-05-23T06:26:22.313Z,5104
2018-05-23T06:27:23.936Z,5240
2018-05-23T06:28:25.556Z,5352
2018-05-23T06:29:27.187Z,5452
2018-05-23T06:30:28.865Z,5476
2018-05-23T06:31:30.430Z,5412
2018-05-23T06:32:32.053Z,5272
2018-05-23T06:33:33.671Z,5068
2018-05-23T06:34:35.299Z,4860
2018-05-23T06:35:36.917Z,4672
2018-05-23T06:36:38.540Z,4528
2018-05-23T06:37:40.163Z,4428
2018-05-23T06:38:41.778Z,4392
2018-05-23T06:39:43.398Z,4400
2018-05-23T06:40:45.024Z,4420
2018-05-23T06:41:46.650Z,4456
2018-05-23T06:42:48.269Z,4504
2018-05-23T06:43:49.894Z,4568
2018-05-23T06:44:51.518Z,4628
2018-05-23T06:45:53.136Z,4708
2018-05-23T06:46:54.766Z,4800
2018-05-23T06:47:56.390Z,4912
2018-05-23T06:48:58.009Z,5024
2018-05-23T06:49:59.671Z,5140
2018-05-23T06:51:01.262Z,5244
2018-05-23T06:52:02.879Z,5340
2018-05-23T06:53:04.500Z,5428
2018-05-23T06:54:06.122Z,5520
2018-05-23T06:55:07.739Z,5624
2018-05-23T06:56:10.097Z,5744
2018-05-23T06:57:11.725Z,5884
2018-05-23T06:58:13.347Z,6052
2018-05-23T06:59:14.967Z,6280
2018-05-23T07:00:16.591Z,6488
2018-05-23T07:01:18.211Z,6656
2018-05-23T07:02:19.835Z,6844
2018-05-23T07:03:21.460Z,7100
2018-05-23T07:04:23.076Z,7416
2018-05-23T07:05:24.705Z,7760
2018-05-23T07:06:26.331Z,8128
2018-05-23T07:07:27.949Z,8492
2018-05-23T07:08:29.577Z,8808
2018-05-23T07:09:31.201Z,9064
2018-05-23T07:10:32.817Z,9268
2018-05-23T07:11:34.442Z,9424
2018-05-23T07:12:36.065Z,9572
2018-05-23T07:13:37.694Z,9772
2018-05-23T07:14:39.321Z,9932
2018-05-23T07:15:40.938Z,9968
2018-05-23T07:16:42.565Z,10076
2018-05-23T07:17:44.221Z,10220
2018-05-23T07:18:45.808Z,10416
2018-05-23T07:19:47.439Z,10596
2018-05-23T07:20:49.058Z,10716
2018-05-23T07:21:50.686Z,10796
2018-05-23T07:22:52.314Z,10976
2018-05-23T07:23:53.930Z,11216
2018-05-23T07:24:55.562Z,11420
2018-05-23T07:25:57.201Z,11608
2018-05-23T07:26:58.814Z,11784
2018-05-23T07:28:00.439Z,11976
2018-05-23T07:29:02.063Z,12208
2018-05-23T07:30:03.691Z,12404
2018-05-23T07:31:05.313Z,13360
2018-05-23T07:32:07.541Z,13052
2018-05-23T07:33:09.167Z,12756
2018-05-23T07:34:10.790Z,13052
2018-05-23T07:35:12.426Z,13640
2018-05-23T07:36:14.046Z,14008
2018-05-23T07:37:15.671Z,13652
2018-05-23T07:38:17.330Z,13356
2018-05-23T07:39:18.925Z,13364
2018-05-23T07:40:20.556Z,13356
2018-05-23T07:41:22.183Z,12828
2018-05-23T07:42:23.811Z,12956
2018-05-23T07:43:25.438Z,13544
2018-05-23T07:44:27.064Z,13748
2018-05-23T07:45:28.684Z,14632
2018-05-23T07:46:30.316Z,15796
2018-05-23T07:47:31.943Z,16672
2018-05-23T07:48:33.569Z,17920
2018-05-23T07:49:35.199Z,18592
2018-05-23T07:50:36.821Z,19328
2018-05-23T07:51:38.443Z,18624
2018-05-23T07:52:40.103Z,19296
2018-05-23T07:53:41.697Z,20128
2018-05-23T07:54:43.320Z,20448
2018-05-23T07:55:44.953Z,20384
2018-05-23T07:56:46.689Z,23232
2018-05-23T07:57:48.199Z,25472
2018-05-23T07:58:49.824Z,26112
2018-05-23T07:59:51.451Z,27264
2018-05-23T08:00:53.076Z,27712
2018-05-23T08:01:54.706Z,28864
2018-05-23T08:02:56.332Z,29376
2018-05-23T08:03:57.962Z,31264
2018-05-23T08:04:59.586Z,33408
2018-05-23T08:06:01.215Z,33600
2018-05-23T08:07:02.842Z,35840
2018-05-23T08:08:04.474Z,34816
2018-05-23T08:09:06.106Z,36000
2018-05-23T08:10:07.730Z,35488
2018-05-23T08:11:09.365Z,36768
2018-05-23T08:12:10.996Z,35488
2018-05-23T08:13:12.623Z,38048
2018-05-23T08:14:14.248Z,36416
2018-05-23T08:15:15.886Z,32064
2018-05-23T08:16:17.515Z,30624
2018-05-23T08:17:19.150Z,23904
2018-05-23T08:18:20.783Z,28800
2018-05-23T08:19:22.416Z,27488
2018-05-23T08:20:24.045Z,23872
2018-05-23T08:21:25.677Z,25440
2018-05-23T08:22:27.305Z,29824
2018-05-23T08:23:28.939Z,32512
2018-05-23T08:24:30.644Z,33344
2018-05-23T08:25:32.202Z,30176
2018-05-23T08:26:33.835Z,31008
2018-05-23T08:27:35.466Z,32928
2018-05-23T08:28:37.097Z,35872
2018-05-23T08:29:38.727Z,36416
2018-05-23T08:30:40.359Z,33600
2018-05-23T08:31:41.995Z,33728
2018-05-23T08:32:43.634Z,31744
2018-05-23T08:33:45.279Z,29184
2018-05-23T08:34:46.913Z,27808
2018-05-23T08:35:48.544Z,27424
2018-05-23T08:36:50.174Z,27200
2018-05-23T08:37:51.812Z,27328
2018-05-23T08:38:53.453Z,27360
2018-05-23T08:39:55.084Z,29184
2018-05-23T08:40:56.723Z,31360
2018-05-23T08:41:58.353Z,33920
2018-05-23T08:42:59.983Z,30624
2018-05-23T08:44:01.622Z,27424
2018-05-23T08:45:03.258Z,24320
2018-05-23T08:46:04.966Z,24352
2018-05-23T08:47:06.522Z,32672
2018-05-23T08:48:08.159Z,32288
2018-05-23T08:49:09.788Z,28544
2018-05-23T08:50:11.422Z,25632
2018-05-23T08:51:13.056Z,24672
2018-05-23T08:52:14.689Z,23648
2018-05-23T08:53:16.325Z,23712
2018-05-23T08:54:17.959Z,23616
2018-05-23T08:55:19.593Z,22880
2018-05-23T08:56:21.221Z,22592
2018-05-23T08:57:22.850Z,22656
2018-05-23T08:58:24.487Z,22080
2018-05-23T08:59:26.117Z,22848
2018-05-23T09:00:27.750Z,23328
2018-05-23T09:01:29.386Z,23776
2018-05-23T09:02:31.015Z,22560
2018-05-23T09:03:32.644Z,22400
2018-05-23T09:04:34.277Z,21728
2018-05-23T09:05:35.907Z,21984
2018-05-23T09:06:37.541Z,21472
2018-05-23T09:07:39.177Z,21408
2018-05-23T09:08:40.804Z,20224
2018-05-23T09:09:42.436Z,19680
2018-05-23T09:10:44.061Z,19328
2018-05-23T09:11:45.695Z,19360
2018-05-23T09:12:47.329Z,19616
2018-05-23T09:13:48.954Z,20800
2018-05-23T09:14:50.587Z,25696
2018-05-23T09:15:52.215Z,27168
2018-05-23T09:16:53.850Z,27872
2018-05-23T09:17:55.480Z,26720
2018-05-23T09:18:57.106Z,26816
2018-05-23T09:19:58.738Z,27648
2018-05-23T09:21:00.373Z,26880
2018-05-23T09:22:01.995Z,24960
2018-05-23T09:23:03.627Z,26080
2018-05-23T09:24:05.258Z,27328
2018-05-23T09:25:06.890Z,30496
2018-05-23T09:26:08.513Z,32288
2018-05-23T09:27:10.147Z,28544
2018-05-23T09:28:11.778Z,26048
2018-05-23T09:29:13.410Z,28576
2018-05-23T09:30:15.044Z,30208
2018-05-23T09:31:16.669Z,30528
2018-05-23T09:32:18.352Z,35712
2018-05-23T09:33:19.929Z,33952
2018-05-23T09:34:21.557Z,35488
2018-05-23T09:35:23.192Z,38400
2018-05-23T09:36:24.816Z,40640
2018-05-23T09:37:26.450Z,40000
2018-05-23T09:38:28.084Z,37792
2018-05-23T09:39:29.717Z,41248
2018-05-23T09:40:31.351Z,43776
2018-05-23T09:41:32.978Z,45280
2018-05-23T09:42:34.603Z,46112
2018-05-23T09:43:36.240Z,45088
2018-05-23T09:44:37.873Z,53856
2018-05-23T09:45:39.499Z,56480
2018-05-23T09:46:41.134Z,60864
2018-05-23T09:47:42.764Z,64736
2018-05-23T09:48:44.397Z,42048
2018-05-23T09:49:46.033Z,60480
2018-05-23T09:50:47.668Z,56352
2018-05-23T09:51:49.300Z,38144
2018-05-23T09:52:50.938Z,27264
2018-05-23T09:53:52.568Z,22176
2018-05-23T09:54:54.204Z,20736
2018-05-23T09:55:55.834Z,19392
2018-05-23T09:56:57.472Z,19168
2018-05-23T09:57:59.103Z,18368
2018-05-23T09:59:00.744Z,19232
2018-05-23T10:00:02.375Z,20032
2018-05-23T10:01:04.011Z,17280
2018-05-23T10:02:05.639Z,15400
2018-05-23T10:03:07.276Z,14192
2018-05-23T10:04:08.909Z,13616
2018-05-23T10:05:10.537Z,13204
2018-05-23T10:06:12.176Z,12936
2018-05-23T10:07:13.801Z,12784
2018-05-23T10:08:15.437Z,12684
2018-05-23T10:09:17.070Z,12704
2018-05-23T10:10:18.701Z,12808
2018-05-23T10:11:20.334Z,13028
2018-05-23T10:12:21.966Z,13292
2018-05-23T10:13:23.601Z,13528
2018-05-23T10:14:25.223Z,13700
2018-05-23T10:15:26.851Z,13780
2018-05-23T10:16:28.484Z,13768
2018-05-23T10:17:30.120Z,13688
2018-05-23T10:18:31.744Z,13596
2018-05-23T10:19:33.378Z,13488
2018-05-23T10:20:35.005Z,13420
2018-05-23T10:21:36.632Z,13424
2018-05-23T10:22:38.265Z,13468
2018-05-23T10:23:39.892Z,13532
2018-05-23T10:24:41.525Z,13636
2018-05-23T10:25:43.155Z,13724
2018-05-23T10:26:44.787Z,13832
2018-05-23T10:27:46.423Z,13972
2018-05-23T10:28:48.049Z,14212
2018-05-23T10:29:49.678Z,14496
2018-05-23T10:30:51.305Z,14696
2018-05-23T10:31:52.932Z,14912
2018-05-23T10:32:54.559Z,15156
2018-05-23T10:33:56.185Z,15356
2018-05-23T10:34:57.820Z,15388
2018-05-23T10:35:59.450Z,15288
2018-05-23T10:37:01.079Z,15072
2018-05-23T10:38:02.707Z,14772
2018-05-23T10:39:04.333Z,14456
2018-05-23T10:40:05.965Z,14140
2018-05-23T10:41:07.591Z,13808
2018-05-23T10:42:09.219Z,13400
2018-05-23T10:43:10.844Z,12852
2018-05-23T10:44:12.472Z,12104
2018-05-23T10:45:14.096Z,11280
2018-05-23T10:46:15.753Z,10556
2018-05-23T10:47:17.348Z,9996
2018-05-23T10:48:18.983Z,9592
2018-05-23T10:49:20.607Z,9308
2018-05-23T10:50:22.234Z,9108
2018-05-23T10:51:23.856Z,8980
2018-05-23T10:52:25.477Z,8928
2018-05-23T10:53:27.108Z,8992
2018-05-23T10:54:28.730Z,9180
2018-05-23T10:55:30.361Z,9468
2018-05-23T10:56:31.986Z,9820
2018-05-23T10:57:33.610Z,10164
2018-05-23T10:58:35.239Z,10472
2018-05-23T10:59:36.868Z,10708
2018-05-23T11:00:38.496Z,10880
2018-05-23T11:01:40.124Z,10992
2018-05-23T11:02:41.747Z,11044
2018-05-23T11:03:43.377Z,11040
2018-05-23T11:04:45.003Z,10996
2018-05-23T11:05:46.725Z,10672
2018-05-23T11:06:48.254Z,10020
2018-05-23T11:07:49.878Z,9908
2018-05-23T11:08:51.528Z,9764
2018-05-23T11:09:53.134Z,9588
2018-05-23T11:10:54.758Z,9400
2018-05-23T11:11:56.384Z,9204
2018-05-23T11:12:58.009Z,9016
2018-05-23T11:13:59.633Z,8824
2018-05-23T11:15:01.364Z,8616
2018-05-23T11:16:02.892Z,8384
2018-05-23T11:17:04.506Z,8128
2018-05-23T11:18:06.140Z,7888
2018-05-23T11:19:07.764Z,7668
2018-05-23T11:20:09.390Z,7460
2018-05-23T11:21:11.014Z,7292
2018-05-23T11:22:12.640Z,7164
2018-05-23T11:23:14.269Z,7060
2018-05-23T11:24:15.890Z,6992
2018-05-23T11:25:17.516Z,6980
2018-05-23T11:26:19.138Z,7012
2018-05-23T11:27:20.761Z,7064
2018-05-23T11:28:22.389Z,7132
2018-05-23T11:29:24.010Z,7240
2018-05-23T11:30:25.639Z,7368
2018-05-23T11:31:27.263Z,7520
2018-05-23T11:32:28.898Z,7696
2018-05-23T11:33:30.515Z,7932
2018-05-23T11:34:32.137Z,8212
2018-05-23T11:35:33.765Z,8516
2018-05-23T11:36:35.395Z,8852
2018-05-23T11:37:37.020Z,9192
2018-05-23T11:38:38.643Z,9520
2018-05-23T11:39:40.270Z,9844
2018-05-23T11:40:41.898Z,10120
2018-05-23T11:41:43.520Z,10316
2018-05-23T11:42:45.149Z,10428
2018-05-23T11:43:46.780Z,10488
2018-05-23T11:44:48.399Z,10544
2018-05-23T11:45:50.026Z,10588
2018-05-23T11:46:51.657Z,10660
2018-05-23T11:47:53.276Z,10748
2018-05-23T11:48:54.903Z,10848
2018-05-23T11:49:56.525Z,10988
2018-05-23T11:50:58.149Z,11192
2018-05-23T11:51:59.779Z,11472
2018-05-23T11:53:01.407Z,11804
2018-05-23T11:54:03.041Z,12160
2018-05-23T11:55:04.662Z,12536
2018-05-23T11:56:06.293Z,12868
2018-05-23T11:57:07.915Z,13044
2018-05-23T11:58:09.541Z,12968
2018-05-23T11:59:11.171Z,12724
2018-05-23T12:00:12.796Z,12304
2018-05-23T12:01:14.431Z,12152
2018-05-23T12:02:16.055Z,12272
2018-05-23T12:03:17.679Z,12576
2018-05-23T12:04:19.306Z,12964
2018-05-23T12:05:20.925Z,13352
2018-05-23T12:06:22.557Z,14144
2018-05-23T12:07:24.190Z,14744
2018-05-23T12:08:25.829Z,14700
2018-05-23T12:09:27.442Z,14316
2018-05-23T12:10:29.077Z,13820
2018-05-23T12:11:30.694Z,13200
2018-05-23T12:12:32.324Z,12628
2018-05-23T12:13:33.950Z,12540
2018-05-23T12:14:35.581Z,12920
2018-05-23T12:15:37.212Z,12972
2018-05-23T12:16:38.834Z,12896
2018-05-23T12:17:40.464Z,13084
2018-05-23T12:18:42.089Z,13264
2018-05-23T12:19:43.723Z,13332
2018-05-23T12:20:45.345Z,13212
2018-05-23T12:21:46.973Z,13040
2018-05-23T12:22:48.599Z,12908
2018-05-23T12:23:50.229Z,12820
2018-05-23T12:24:51.848Z,12728
2018-05-23T12:25:53.479Z,12660
2018-05-23T12:26:55.104Z,12628
2018-05-23T12:27:56.809Z,12584
2018-05-23T12:28:58.366Z,12548
2018-05-23T12:29:59.993Z,12544
2018-05-23T12:31:01.626Z,12592
2018-05-23T12:32:03.243Z,12696
2018-05-23T12:33:04.868Z,12792
2018-05-23T12:34:06.501Z,12864
2018-05-23T12:35:08.128Z,12904
2018-05-23T12:36:09.754Z,12928
2018-05-23T12:37:11.389Z,12920
2018-05-23T12:38:13.012Z,12936
2018-05-23T12:39:14.642Z,12992
2018-05-23T12:40:16.264Z,13060
2018-05-23T12:41:17.897Z,13144
2018-05-23T12:42:19.520Z,13268
2018-05-23T12:43:21.150Z,13432
2018-05-23T12:44:22.779Z,13612
2018-05-23T12:45:24.411Z,13772
2018-05-23T12:46:26.029Z,13972
2018-05-23T12:47:27.676Z,14224
2018-05-23T12:48:29.307Z,14552
2018-05-23T12:49:30.935Z,14864
2018-05-23T12:50:32.567Z,15200
2018-05-23T12:51:34.193Z,15456
2018-05-23T12:52:35.820Z,15832
2018-05-23T12:53:37.450Z,16736
2018-05-23T12:54:39.075Z,17248
2018-05-23T12:55:40.710Z,18016
2018-05-23T12:56:42.334Z,18528
2018-05-23T12:57:43.964Z,19136
2018-05-23T12:58:45.590Z,21504
2018-05-23T12:59:47.232Z,22528
2018-05-23T13:00:48.847Z,23200
2018-05-23T13:01:50.476Z,23776
2018-05-23T13:02:52.099Z,24928
2018-05-23T13:03:53.729Z,26112
2018-05-23T13:04:55.361Z,27520
2018-05-23T13:05:56.988Z,29120
2018-05-23T13:06:58.618Z,29248
2018-05-23T13:08:00.249Z,30208
2018-05-23T13:09:01.876Z,30816
2018-05-23T13:10:03.506Z,32512
2018-05-23T13:11:05.138Z,34560
2018-05-23T13:12:06.767Z,35040
2018-05-23T13:13:08.394Z,34112
2018-05-23T13:14:10.021Z,32768
2018-05-23T13:15:11.652Z,32384
2018-05-23T13:16:13.276Z,31040
2018-05-23T13:17:14.913Z,30208
2018-05-23T13:18:16.535Z,31840
2018-05-23T13:19:18.173Z,31392
2018-05-23T13:20:19.809Z,31008
2018-05-23T13:21:21.433Z,30624
2018-05-23T13:22:23.066Z,31104
2018-05-23T13:23:24.690Z,33024
2018-05-23T13:24:26.319Z,35296
2018-05-23T13:25:27.951Z,37088
2018-05-23T13:26:29.581Z,38400
2018-05-23T13:27:31.206Z,39776
2018-05-23T13:28:32.838Z,42848
2018-05-23T13:29:34.469Z,42464
2018-05-23T13:30:36.100Z,42976
2018-05-23T13:31:37.745Z,41632
2018-05-23T13:32:39.374Z,42144
2018-05-23T13:33:41.006Z,44224
2018-05-23T13:34:42.643Z,44448
2018-05-23T13:35:44.265Z,49312
2018-05-23T13:36:45.897Z,51904
2018-05-23T13:37:47.526Z,51456
2018-05-23T13:38:49.220Z,49984
2018-05-23T13:39:50.795Z,46784
2018-05-23T13:40:52.426Z,49344
2018-05-23T13:41:54.055Z,49088
2018-05-23T13:42:55.685Z,49696
2018-05-23T13:43:57.320Z,50400
2018-05-23T13:44:58.948Z,52224
2018-05-23T13:46:00.584Z,52704
2018-05-23T13:47:02.222Z,53920
2018-05-23T13:48:03.848Z,53056
2018-05-23T13:49:05.484Z,53504
2018-05-23T13:50:07.111Z,52928
2018-05-23T13:51:08.746Z,54144